createdAt,value
2018-08-10T00:01:33.750Z,100072.87
2018-08-10T00:04:01.425Z,100070.05
2018-08-10T00:06:29.074Z,100073.09
2018-08-10T00:08:56.849Z,100074.30
2018-08-10T00:11:24.521Z,100075.94
2018-08-10T00:13:52.195Z,100083.29
2018-08-10T00:16:19.945Z,100088.28
2018-08-10T00:18:47.993Z,100081.04
2018-08-10T00:21:15.676Z,100080.73
2018-08-10T00:23:43.408Z,100082.81
2018-08-10T00:26:11.182Z,100082.11
2018-08-10T00:28:38.990Z,100084.91
2018-08-10T00:31:06.716Z,100086.58
2018-08-10T00:33:34.434Z,100089.86
2018-08-10T00:36:02.206Z,100079.95
2018-08-10T00:38:29.878Z,100087.64
2018-08-10T00:40:57.606Z,100081.13
2018-08-10T00:43:25.345Z,100083.58
2018-08-10T00:45:53.057Z,100084.91
2018-08-10T00:48:20.820Z,100083.09
2018-08-10T00:50:48.506Z,100078.98
2018-08-10T00:53:16.223Z,100080.44
2018-08-10T00:55:43.910Z,100088.17
2018-08-10T00:58:11.597Z,100085.20
2018-08-10T01:00:39.346Z,100084.90
2018-08-10T01:03:07.066Z,100082.33
2018-08-10T01:05:34.716Z,100084.28
2018-08-10T01:08:02.417Z,100088.08
2018-08-10T01:10:30.089Z,100078.66
2018-08-10T01:12:57.738Z,100084.88
2018-08-10T01:15:25.409Z,100078.08
2018-08-10T01:17:53.050Z,100081.77
2018-08-10T01:20:22.052Z,100079.70
2018-08-10T01:22:55.218Z,100081.66
2018-08-10T01:25:25.001Z,100078.85
2018-08-10T01:27:59.781Z,100080.56
2018-08-10T01:30:29.797Z,100080.30
2018-08-10T01:32:57.701Z,100088.44
2018-08-10T01:35:26.042Z,100083.55
2018-08-10T01:37:54.764Z,100081.08
2018-08-10T01:40:22.459Z,100081.82
2018-08-10T01:42:50.197Z,100072.64
2018-08-10T01:45:17.982Z,100067.27
2018-08-10T01:47:45.766Z,100072.59
2018-08-10T01:50:13.533Z,100074.28
2018-08-10T01:52:41.181Z,100070.97
2018-08-10T01:55:09.482Z,100075.91
2018-08-10T01:57:37.861Z,100078.86
2018-08-10T02:00:06.040Z,100081.87
2018-08-10T02:02:33.835Z,100090.34
2018-08-10T02:05:01.509Z,100081.80
2018-08-10T02:07:29.246Z,100087.45
2018-08-10T02:09:56.906Z,100089.33
2018-08-10T02:12:24.633Z,100083.16
2018-08-10T02:14:52.301Z,100082.32
2018-08-10T02:17:19.931Z,100086.20
2018-08-10T02:19:47.597Z,100088.36
2018-08-10T02:22:15.277Z,100092.41
2018-08-10T02:24:43.005Z,100088.42
2018-08-10T02:27:10.714Z,100093.31
2018-08-10T02:29:38.369Z,100094.87
2018-08-10T02:32:06.146Z,100097.50
2018-08-10T02:34:33.834Z,100100.19
2018-08-10T02:37:01.626Z,100096.58
2018-08-10T02:39:29.317Z,100108.53
2018-08-10T02:41:57.018Z,100109.31
2018-08-10T02:44:24.691Z,100119.20
2018-08-10T02:46:52.374Z,100122.22
2018-08-10T02:49:20.062Z,100126.05
2018-08-10T02:51:47.750Z,100122.72
2018-08-10T02:54:15.430Z,100121.04
2018-08-10T02:56:43.175Z,100131.20
2018-08-10T02:59:10.865Z,100138.58
2018-08-10T03:01:38.625Z,100139.23
2018-08-10T03:04:06.310Z,100142.27
2018-08-10T03:06:33.970Z,100145.02
2018-08-10T03:09:01.655Z,100147.22
2018-08-10T03:11:29.430Z,100151.47
2018-08-10T03:13:57.133Z,100147.95
2018-08-10T03:16:24.809Z,100152.95
2018-08-10T03:18:52.573Z,100158.19
2018-08-10T03:21:20.321Z,100156.94
2018-08-10T03:23:48.072Z,100159.02
2018-08-10T03:26:15.827Z,100161.14
2018-08-10T03:28:43.508Z,100158.96
2018-08-10T03:31:11.173Z,100149.41
2018-08-10T03:33:38.866Z,100155.30
2018-08-10T03:36:06.582Z,100154.32
2018-08-10T03:38:34.257Z,100158.66
2018-08-10T03:41:02.016Z,100163.26
2018-08-10T03:43:29.679Z,100164.08
2018-08-10T03:45:57.378Z,100163.43
2018-08-10T03:48:25.057Z,100149.05
2018-08-10T03:50:52.753Z,100142.23
2018-08-10T03:53:20.429Z,100144.36
2018-08-10T03:55:48.073Z,100140.23
2018-08-10T03:58:15.777Z,100133.95
2018-08-10T04:00:43.486Z,100134.16
2018-08-10T04:03:11.233Z,100140.66
2018-08-10T04:05:38.933Z,100138.71
2018-08-10T04:08:06.645Z,100143.66
2018-08-10T04:10:34.345Z,100135.89
2018-08-10T04:13:02.006Z,100139.78
2018-08-10T04:15:29.678Z,100131.92
2018-08-10T04:17:57.413Z,100130.45
2018-08-10T04:20:25.110Z,100131.95
2018-08-10T04:22:52.813Z,100141.05
2018-08-10T04:25:20.485Z,100138.72
2018-08-10T04:27:48.127Z,100137.98
2018-08-10T04:30:15.797Z,100137.45
2018-08-10T04:32:43.474Z,100138.17
2018-08-10T04:35:11.200Z,100138.45
2018-08-10T04:37:38.889Z,100140.94
2018-08-10T04:40:08.529Z,100133.76
2018-08-10T04:42:36.246Z,100137.17
2018-08-10T04:45:04.462Z,100135.72
2018-08-10T04:47:32.222Z,100141.06
2018-08-10T04:49:59.902Z,100150.46
2018-08-10T04:52:27.650Z,100151.39
2018-08-10T04:54:55.304Z,100160.75
2018-08-10T04:57:22.961Z,100167.95
2018-08-10T04:59:50.613Z,100169.14
2018-08-10T05:02:18.286Z,100182.57
2018-08-10T05:04:45.942Z,100180.17
2018-08-10T05:07:13.633Z,100179.80
2018-08-10T05:09:41.302Z,100183.67
2018-08-10T05:12:09.001Z,100186.33
2018-08-10T05:14:36.721Z,100187.11
2018-08-10T05:17:04.434Z,100198.89
2018-08-10T05:19:32.169Z,100194.31
2018-08-10T05:21:59.869Z,100194.70
2018-08-10T05:24:28.089Z,100198.73
2018-08-10T05:26:55.765Z,100199.73
2018-08-10T05:29:23.454Z,100201.09
2018-08-10T05:31:51.197Z,100195.89
2018-08-10T05:34:18.945Z,100194.50
2018-08-10T05:36:46.604Z,100201.80
2018-08-10T05:39:14.351Z,100193.94
2018-08-10T05:41:42.013Z,100194.34
2018-08-10T05:44:09.771Z,100202.69
2018-08-10T05:46:37.373Z,100215.79
2018-08-10T05:49:05.013Z,100211.45
2018-08-10T05:51:32.661Z,100209.86
2018-08-10T05:54:00.333Z,100209.41
2018-08-10T05:56:27.984Z,100212.42
2018-08-10T05:58:55.649Z,100215.15
2018-08-10T06:01:23.299Z,100210.37
2018-08-10T06:03:51.046Z,100225.41
2018-08-10T06:06:18.747Z,100215.94
2018-08-10T06:08:46.438Z,100213.34
2018-08-10T06:11:14.162Z,100215.62
2018-08-10T06:13:41.835Z,100214.48
2018-08-10T06:16:09.548Z,100218.19
2018-08-10T06:18:37.260Z,100212.20
2018-08-10T06:21:04.962Z,100223.17
2018-08-10T06:23:32.642Z,100226.23
2018-08-10T06:26:00.319Z,100220.15
2018-08-10T06:28:27.977Z,100229.12
2018-08-10T06:30:55.675Z,100224.27
2018-08-10T06:33:23.373Z,100235.72
2018-08-10T06:35:51.049Z,100238.86
2018-08-10T06:38:18.786Z,100233.48
2018-08-10T06:40:46.479Z,100240.22
2018-08-10T06:43:14.121Z,100238.83
2018-08-10T06:45:41.858Z,100242.56
2018-08-10T06:48:09.523Z,100250.45
2018-08-10T06:50:37.218Z,100257.05
2018-08-10T06:53:04.946Z,100256.08
2018-08-10T06:55:32.634Z,100255.28
2018-08-10T06:58:00.323Z,100255.83
2018-08-10T07:00:27.998Z,100245.50
2018-08-10T07:02:55.683Z,100243.74
2018-08-10T07:05:23.394Z,100253.42
2018-08-10T07:07:51.072Z,100246.66
2018-08-10T07:10:18.748Z,100259.16
2018-08-10T07:12:46.627Z,100258.08
2018-08-10T07:15:14.288Z,100258.96
2018-08-10T07:17:41.973Z,100258.34
2018-08-10T07:20:09.701Z,100254.06
2018-08-10T07:22:37.494Z,100253.39
2018-08-10T07:25:06.165Z,100259.27
2018-08-10T07:27:33.999Z,100264.67
2018-08-10T07:30:01.910Z,100254.43
2018-08-10T07:32:29.707Z,100253.02
2018-08-10T07:34:57.494Z,100257.02
2018-08-10T07:37:25.297Z,100258.53
2018-08-10T07:39:52.956Z,100257.33
2018-08-10T07:42:20.650Z,100253.94
2018-08-10T07:44:48.325Z,100249.48
2018-08-10T07:47:15.998Z,100246.61
2018-08-10T07:49:43.651Z,100249.00
2018-08-10T07:52:11.358Z,100243.98
2018-08-10T07:54:39.068Z,100243.91
2018-08-10T07:57:06.792Z,100248.80
2018-08-10T07:59:34.495Z,100244.20
2018-08-10T08:02:02.226Z,100241.06
2018-08-10T08:04:29.942Z,100240.09
2018-08-10T08:06:58.653Z,100245.82
2018-08-10T08:09:26.879Z,100243.58
2018-08-10T08:11:54.597Z,100245.21
2018-08-10T08:14:22.487Z,100241.80
2018-08-10T08:16:50.373Z,100243.20
2018-08-10T08:19:18.070Z,100244.12
2018-08-10T08:21:56.455Z,100234.70
2018-08-10T08:24:24.243Z,100236.58
2018-08-10T08:26:51.935Z,100236.81
2018-08-10T08:29:19.738Z,100229.85
2018-08-10T08:31:47.430Z,100224.58
2018-08-10T08:34:15.226Z,100228.77
2018-08-10T08:36:42.935Z,100231.58
2018-08-10T08:39:30.392Z,100228.53
2018-08-10T08:41:58.134Z,100223.94
2018-08-10T08:44:37.644Z,100218.82
2018-08-10T08:47:06.177Z,100213.23
2018-08-10T08:49:34.781Z,100217.41
2018-08-10T08:52:02.701Z,100225.54
2018-08-10T08:55:34.266Z,100235.73
2018-08-10T08:58:01.926Z,100235.30
2018-08-10T09:00:29.737Z,100234.66
2018-08-10T09:02:57.579Z,100222.41
2018-08-10T09:05:25.322Z,100218.98
2018-08-10T09:07:53.063Z,100205.61
2018-08-10T09:10:20.750Z,100216.87
2018-08-10T09:12:48.510Z,100213.52
2018-08-10T09:15:17.923Z,100208.80
2018-08-10T09:17:45.663Z,100210.37
2018-08-10T09:20:13.558Z,100220.16
2018-08-10T09:22:41.260Z,100218.85
2018-08-10T09:25:12.250Z,100213.53
2018-08-10T09:27:39.999Z,100215.33
2018-08-10T09:30:14.017Z,100221.73
2018-08-10T09:32:42.178Z,100214.41
2018-08-10T09:35:10.825Z,100207.55
2018-08-10T09:37:38.629Z,100208.50
2018-08-10T09:40:09.889Z,100198.98
2018-08-10T09:42:37.637Z,100200.40
2018-08-10T09:45:06.630Z,100207.12
2018-08-10T09:47:34.445Z,100204.95
2018-08-10T09:50:02.353Z,100191.52
2018-08-10T09:52:30.037Z,100191.38
2018-08-10T09:55:17.524Z,100186.01
2018-08-10T09:57:45.357Z,100183.19
2018-08-10T10:00:17.636Z,100185.19
2018-08-10T10:02:50.953Z,100177.66
2018-08-10T10:05:18.679Z,100180.62
2018-08-10T10:07:46.463Z,100184.38
2018-08-10T10:10:14.174Z,100181.36
2018-08-10T10:12:41.973Z,100180.88
2018-08-10T10:15:09.802Z,100180.70
2018-08-10T10:17:37.571Z,100175.80
2018-08-10T10:20:06.414Z,100173.78
2018-08-10T10:22:34.247Z,100157.73
2018-08-10T10:25:02.351Z,100157.24
2018-08-10T10:27:30.309Z,100165.25
2018-08-10T10:29:58.319Z,100167.97
2018-08-10T10:32:26.040Z,100163.43
2018-08-10T10:34:53.795Z,100161.20
2018-08-10T10:37:22.119Z,100157.43
2018-08-10T10:39:49.816Z,100156.84
2018-08-10T10:42:17.827Z,100163.34
2018-08-10T10:44:45.574Z,100151.45
2018-08-10T10:47:13.313Z,100150.73
2018-08-10T10:49:41.015Z,100148.80
2018-08-10T10:52:08.758Z,100155.56
2018-08-10T10:54:36.519Z,100147.19
2018-08-10T10:57:04.354Z,100150.52
2018-08-10T10:59:32.139Z,100140.59
2018-08-10T11:01:59.837Z,100146.16
2018-08-10T11:04:27.641Z,100144.52
2018-08-10T11:06:55.429Z,100140.35
2018-08-10T11:09:23.142Z,100139.14
2018-08-10T11:11:50.938Z,100136.52
2018-08-10T11:14:18.635Z,100136.09
2018-08-10T11:16:46.475Z,100132.96
2018-08-10T11:19:14.205Z,100138.86
2018-08-10T11:21:42.011Z,100130.62
2018-08-10T11:24:09.809Z,100134.59
2018-08-10T11:26:37.887Z,100137.39
2018-08-10T11:29:38.422Z,100123.69
2018-08-10T11:32:06.347Z,100135.51
2018-08-10T11:34:35.921Z,100139.75
2018-08-10T11:37:03.874Z,100133.92
2018-08-10T11:39:31.633Z,100123.45
2018-08-10T11:41:59.372Z,100119.18
2018-08-10T11:44:27.112Z,100113.03
2018-08-10T11:46:54.851Z,100112.84
2018-08-10T11:49:22.575Z,100108.14
2018-08-10T11:51:50.363Z,100114.91
2018-08-10T11:54:18.154Z,100115.23
2018-08-10T11:56:45.883Z,100116.27
2018-08-10T11:59:13.713Z,100117.66
2018-08-10T12:01:41.399Z,100115.96
2018-08-10T12:04:09.158Z,100112.80
2018-08-10T12:06:36.888Z,100113.61
2018-08-10T12:09:07.626Z,100115.12
2018-08-10T12:11:35.370Z,100116.86
2018-08-10T12:14:03.160Z,100115.73
2018-08-10T12:16:30.921Z,100112.44
2018-08-10T12:18:58.753Z,100120.34
2018-08-10T12:21:26.487Z,100106.10
2018-08-10T12:23:54.363Z,100105.50
2018-08-10T12:26:22.132Z,100099.70
2018-08-10T12:28:49.829Z,100095.95
2018-08-10T12:31:17.520Z,100098.59
2018-08-10T12:33:45.262Z,100091.81
2018-08-10T12:36:12.999Z,100083.33
2018-08-10T12:38:40.743Z,100086.52
2018-08-10T12:41:08.494Z,100095.92
2018-08-10T12:43:36.236Z,100089.19
2018-08-10T12:46:04.084Z,100091.02
2018-08-10T12:48:31.827Z,100094.33
2018-08-10T12:50:59.841Z,100086.36
2018-08-10T12:53:27.911Z,100077.28
2018-08-10T12:55:55.622Z,100074.53
2018-08-10T12:58:23.344Z,100068.29
2018-08-10T13:00:51.105Z,100065.78
2018-08-10T13:03:19.158Z,100059.80
2018-08-10T13:05:46.839Z,100056.60
2018-08-10T13:08:14.542Z,100054.52
2018-08-10T13:10:42.286Z,100056.69
2018-08-10T13:13:10.017Z,100054.46
2018-08-10T13:15:37.739Z,100057.71
2018-08-10T13:18:06.049Z,100053.69
2018-08-10T13:20:33.747Z,100064.97
2018-08-10T13:23:01.445Z,100054.16
2018-08-10T13:25:29.154Z,100052.77
2018-08-10T13:27:56.861Z,100044.80
2018-08-10T13:30:24.628Z,100053.29
2018-08-10T13:32:52.352Z,100047.62
2018-08-10T13:35:20.105Z,100052.28
2018-08-10T13:37:47.822Z,100054.61
2018-08-10T13:40:15.642Z,100044.34
2018-08-10T13:42:43.783Z,100046.55
2018-08-10T13:45:12.918Z,100031.98
2018-08-10T13:47:40.978Z,100033.86
2018-08-10T13:50:10.664Z,100034.52
2018-08-10T13:52:38.391Z,100036.49
2018-08-10T13:55:06.257Z,100037.94
2018-08-10T13:57:33.986Z,100030.83
2018-08-10T14:00:01.673Z,100031.00
2018-08-10T14:02:29.433Z,100031.25
2018-08-10T14:04:57.254Z,100037.53
2018-08-10T14:07:25.050Z,100036.23
2018-08-10T14:09:52.805Z,100032.16
2018-08-10T14:12:20.512Z,100023.79
2018-08-10T14:14:48.247Z,100025.62
2018-08-10T14:17:16.018Z,100037.61
2018-08-10T14:19:43.769Z,100032.52
2018-08-10T14:22:11.474Z,100029.16
2018-08-10T14:24:39.195Z,100025.19
2018-08-10T14:27:07.001Z,100024.10
2018-08-10T14:29:34.757Z,100024.66
2018-08-10T14:32:02.462Z,100033.50
2018-08-10T14:34:30.202Z,100020.16
2018-08-10T14:36:58.014Z,100029.08
2018-08-10T14:39:25.728Z,100029.45
2018-08-10T14:41:53.473Z,100024.34
2018-08-10T14:44:21.192Z,100026.70
2018-08-10T14:46:48.936Z,100027.81
2018-08-10T14:49:16.650Z,100036.27
2018-08-10T14:51:44.437Z,100029.94
2018-08-10T14:54:12.236Z,100033.96
2018-08-10T14:56:39.937Z,100041.90
2018-08-10T14:59:07.781Z,100039.55
2018-08-10T15:01:35.517Z,100039.23
2018-08-10T15:04:03.351Z,100036.63
2018-08-10T15:06:31.071Z,100027.48
2018-08-10T15:08:58.788Z,100031.66
2018-08-10T15:11:26.618Z,100028.45
2018-08-10T15:13:54.406Z,100027.16
2018-08-10T15:16:22.148Z,100025.20
2018-08-10T15:18:49.888Z,100029.88
2018-08-10T15:21:17.701Z,100018.60
2018-08-10T15:23:45.465Z,100017.83
2018-08-10T15:26:13.178Z,100019.64
2018-08-10T15:28:40.933Z,100023.72
2018-08-10T15:31:08.657Z,100034.00
2018-08-10T15:33:36.409Z,100038.86
2018-08-10T15:36:04.259Z,100035.81
2018-08-10T15:38:31.954Z,100030.77
2018-08-10T15:40:59.651Z,100031.52
2018-08-10T15:43:27.341Z,100032.13
2018-08-10T15:45:55.094Z,100037.34
2018-08-10T15:48:22.826Z,100040.81
2018-08-10T15:50:50.538Z,100037.45
2018-08-10T15:53:18.225Z,100040.37
2018-08-10T15:55:45.922Z,100041.44
2018-08-10T15:58:13.654Z,100037.37
2018-08-10T16:00:41.365Z,100036.04
2018-08-10T16:03:09.068Z,100033.20
2018-08-10T16:05:36.759Z,100041.05
2018-08-10T16:08:04.754Z,100037.02
2018-08-10T16:10:32.447Z,100041.64
2018-08-10T16:13:00.213Z,100036.13
2018-08-10T16:15:27.933Z,100040.02
2018-08-10T16:17:56.227Z,100034.88
2018-08-10T16:20:24.011Z,100030.86
2018-08-10T16:22:51.717Z,100033.42
2018-08-10T16:25:19.484Z,100042.25
2018-08-10T16:27:47.324Z,100035.05
2018-08-10T16:30:16.191Z,100037.59
2018-08-10T16:32:44.752Z,100040.31
2018-08-10T16:35:13.621Z,100044.16
2018-08-10T16:37:42.662Z,100035.12
2018-08-10T16:40:11.495Z,100038.65
2018-08-10T16:42:40.002Z,100039.09
2018-08-10T16:45:08.384Z,100038.51
2018-08-10T16:47:36.750Z,100038.02
2018-08-10T16:50:06.543Z,100038.68
2018-08-10T16:52:34.244Z,100036.77
2018-08-10T16:55:02.072Z,100034.95
2018-08-10T16:57:29.758Z,100033.72
2018-08-10T16:59:57.503Z,100042.30
2018-08-10T17:02:25.522Z,100044.00
2018-08-10T17:04:53.218Z,100049.25
2018-08-10T17:07:20.925Z,100051.02
2018-08-10T17:09:49.766Z,100058.95
2018-08-10T17:12:17.438Z,100058.33
2018-08-10T17:14:45.158Z,100058.96
2018-08-10T17:17:12.841Z,100065.64
2018-08-10T17:19:40.663Z,100063.27
2018-08-10T17:22:08.997Z,100062.12
2018-08-10T17:24:36.747Z,100061.70
2018-08-10T17:27:04.535Z,100058.89
2018-08-10T17:29:32.252Z,100065.54
2018-08-10T17:31:59.980Z,100072.66
2018-08-10T17:34:27.716Z,100073.93
2018-08-10T17:36:55.399Z,100078.11
2018-08-10T17:39:23.147Z,100075.70
2018-08-10T17:41:50.843Z,100087.13
2018-08-10T17:44:18.563Z,100083.23
2018-08-10T17:46:46.396Z,100083.75
2018-08-10T17:49:14.125Z,100085.80
2018-08-10T17:51:42.020Z,100087.70
2018-08-10T17:54:09.764Z,100093.94
2018-08-10T17:56:37.501Z,100101.02
2018-08-10T17:59:05.368Z,100094.83
2018-08-10T18:01:33.174Z,100096.50
2018-08-10T18:04:00.890Z,100102.91
2018-08-10T18:06:28.649Z,100104.20
2018-08-10T18:08:56.337Z,100104.04
2018-08-10T18:11:24.141Z,100107.14
2018-08-10T18:13:51.890Z,100109.89
2018-08-10T18:16:19.662Z,100110.75
2018-08-10T18:18:47.411Z,100116.63
2018-08-10T18:21:15.139Z,100122.51
2018-08-10T18:23:42.880Z,100128.23
2018-08-10T18:26:10.583Z,100130.27
2018-08-10T18:28:38.472Z,100136.67
2018-08-10T18:31:06.788Z,100142.77
2018-08-10T18:33:34.581Z,100136.38
2018-08-10T18:36:02.673Z,100139.17
2018-08-10T18:38:30.472Z,100141.05
2018-08-10T18:40:58.196Z,100137.75
2018-08-10T18:43:25.948Z,100144.46
2018-08-10T18:45:53.652Z,100144.17
2018-08-10T18:48:21.365Z,100144.14
2018-08-10T18:50:49.221Z,100149.45
2018-08-10T18:53:16.921Z,100154.16
2018-08-10T18:55:44.647Z,100155.30
2018-08-10T18:58:12.405Z,100149.78
2018-08-10T19:00:40.281Z,100154.23
2018-08-10T19:03:08.085Z,100158.13
2018-08-10T19:05:35.896Z,100155.37
2018-08-10T19:08:03.657Z,100160.42
2018-08-10T19:10:31.452Z,100154.58
2018-08-10T19:12:59.368Z,100157.95
2018-08-10T19:15:27.107Z,100154.89
2018-08-10T19:17:54.899Z,100153.52
2018-08-10T19:20:22.766Z,100149.13
2018-08-10T19:22:51.246Z,100155.80
2018-08-10T19:25:19.152Z,100156.59
2018-08-10T19:27:46.974Z,100152.00
2018-08-10T19:30:16.895Z,100161.42
2018-08-10T19:32:45.655Z,100166.11
2018-08-10T19:35:13.614Z,100163.06
2018-08-10T19:37:41.688Z,100166.62
2018-08-10T19:40:11.973Z,100173.02
2018-08-10T19:42:39.718Z,100170.27
2018-08-10T19:45:08.545Z,100166.44
2018-08-10T19:47:36.617Z,100163.64
2018-08-10T19:50:05.556Z,100162.00
2018-08-10T19:52:33.330Z,100182.16
2018-08-10T19:55:01.052Z,100179.14
2018-08-10T19:57:28.806Z,100180.23
2018-08-10T19:59:56.797Z,100180.75
2018-08-10T20:02:24.560Z,100185.45
2018-08-10T20:04:52.264Z,100184.62
2018-08-10T20:07:19.986Z,100195.91
2018-08-10T20:09:47.746Z,100194.95
2018-08-10T20:12:15.472Z,100196.13
2018-08-10T20:14:43.218Z,100194.78
2018-08-10T20:17:10.929Z,100201.94
2018-08-10T20:19:38.615Z,100203.63
2018-08-10T20:22:13.284Z,100196.69
2018-08-10T20:24:41.148Z,100198.26
2018-08-10T20:27:09.912Z,100200.48
2018-08-10T20:29:37.631Z,100203.17
2018-08-10T20:32:05.468Z,100202.92
2018-08-10T20:34:33.468Z,100201.56
2018-08-10T20:37:01.530Z,100205.40
2018-08-10T20:39:29.228Z,100202.95
2018-08-10T20:41:57.379Z,100204.55
2018-08-10T20:44:25.224Z,100208.64
2018-08-10T20:46:53.143Z,100197.63
2018-08-10T20:49:21.023Z,100211.98
2018-08-10T20:51:48.875Z,100204.84
2018-08-10T20:54:16.694Z,100207.84
2018-08-10T20:56:44.429Z,100204.44
2018-08-10T20:59:12.148Z,100202.74
2018-08-10T21:01:39.904Z,100200.25
2018-08-10T21:04:07.785Z,100198.62
2018-08-10T21:06:35.525Z,100200.78
2018-08-10T21:09:05.175Z,100200.42
2018-08-10T21:11:32.914Z,100205.08
2018-08-10T21:14:00.705Z,100200.91
2018-08-10T21:16:28.468Z,100201.42
2018-08-10T21:18:56.212Z,100198.92
2018-08-10T21:21:23.918Z,100198.61
2018-08-10T21:23:51.638Z,100207.38
2018-08-10T21:26:19.401Z,100205.67
2018-08-10T21:28:47.086Z,100209.68
2018-08-10T21:31:14.781Z,100207.56
2018-08-10T21:33:42.516Z,100208.30
2018-08-10T21:36:10.270Z,100213.06
2018-08-10T21:38:38.018Z,100205.09
2018-08-10T21:41:05.747Z,100210.50
2018-08-10T21:43:33.430Z,100203.84
2018-08-10T21:46:01.121Z,100198.16
2018-08-10T21:48:29.172Z,100201.57
2018-08-10T21:50:56.974Z,100202.60
2018-08-10T21:53:24.724Z,100204.89
2018-08-10T21:55:52.353Z,100203.86
2018-08-10T21:58:20.062Z,100203.82
2018-08-10T22:00:53.217Z,100194.39
2018-08-10T22:03:22.202Z,100195.84
2018-08-10T22:05:50.137Z,100201.11
2018-08-10T22:08:19.018Z,100196.05
2018-08-10T22:10:46.738Z,100196.53
2018-08-10T22:13:20.097Z,100190.73
2018-08-10T22:15:53.222Z,100193.71
2018-08-10T22:18:26.403Z,100196.00
2018-08-10T22:20:54.746Z,100195.84
2018-08-10T22:23:22.414Z,100192.86
2018-08-10T22:25:50.108Z,100195.62
2018-08-10T22:28:17.969Z,100194.05
2018-08-10T22:30:45.792Z,100195.80
2018-08-10T22:33:13.523Z,100195.03
2018-08-10T22:35:41.682Z,100194.57
2018-08-10T22:38:09.629Z,100195.64
2018-08-10T22:40:37.286Z,100197.12
2018-08-10T22:43:05.002Z,100194.80
2018-08-10T22:45:32.690Z,100192.79
2018-08-10T22:48:00.430Z,100190.68
2018-08-10T22:50:28.223Z,100195.20
2018-08-10T22:52:55.902Z,100189.73
2018-08-10T22:55:23.610Z,100188.43
2018-08-10T22:57:51.363Z,100187.97
2018-08-10T23:00:19.421Z,100192.66
2018-08-10T23:02:47.137Z,100194.57
2018-08-10T23:05:14.884Z,100191.89
2018-08-10T23:07:42.545Z,100191.72
2018-08-10T23:10:11.534Z,100195.24
2018-08-10T23:12:39.530Z,100195.24
2018-08-10T23:15:07.837Z,100192.45
2018-08-10T23:17:35.669Z,100188.77
2018-08-10T23:20:04.348Z,100190.45
2018-08-10T23:22:32.018Z,100194.84
2018-08-10T23:24:59.702Z,100187.56
2018-08-10T23:27:27.441Z,100185.88
2018-08-10T23:29:55.161Z,100182.03
2018-08-10T23:32:22.935Z,100179.98
2018-08-10T23:34:50.593Z,100175.24
2018-08-10T23:37:18.302Z,100182.84
2018-08-10T23:39:45.996Z,100182.91
2018-08-10T23:42:13.670Z,100181.86
2018-08-10T23:44:41.742Z,100181.99
2018-08-10T23:47:09.449Z,100179.57
2018-08-10T23:49:37.189Z,100178.23
2018-08-10T23:52:05.022Z,100185.31
2018-08-10T23:54:32.733Z,100183.85
2018-08-10T23:57:00.460Z,100182.48
2018-08-10T23:59:28.165Z,100170.72
